Time;durP1;ratioP1;P1;durP2;ratioP2;P2;SDS_P1;SDS_P2;PMS_P1;PMS_P2;Temp;Humidity;BMP_temperature;BMP_pressure;BME280_temperature;BME280_humidity;BME280_pressure;Samples;Min_cycle;Max_cycle;Signal;HPM_P1;HPM_P2
2021/11/03 00:02:15;;;;;;;4.10;3.88;;;;;;;2.46;100.00;100591.06;6275821;22;20482;-74
2021/11/03 00:04:41;;;;;;;4.25;4.00;;;;;;;2.46;100.00;100590.22;6245839;22;20024;-74
2021/11/03 00:07:09;;;;;;;78.75;8.30;;;;;;;2.47;100.00;100597.06;6270139;22;20016;-75
2021/11/03 00:09:35;;;;;;;16.23;7.25;;;;;;;2.46;100.00;100592.78;6271259;22;20016;-74
2021/11/03 00:12:01;;;;;;;5.72;5.13;;;;;;;2.48;100.00;100583.34;6271388;22;20095;-74
2021/11/03 00:14:27;;;;;;;3.38;3.10;;;;;;;2.49;100.00;100591.03;6244317;22;20016;-75
2021/11/03 00:16:53;;;;;;;11.90;6.28;;;;;;;2.52;100.00;100582.44;6269324;22;20069;-74
2021/11/03 00:19:19;;;;;;;8.80;7.82;;;;;;;2.55;100.00;100590.13;6271050;22;20126;-74
2021/11/03 00:21:45;;;;;;;4.43;4.10;;;;;;;2.55;100.00;100592.72;6271416;22;20015;-75
2021/11/03 00:24:11;;;;;;;23.23;5.57;;;;;;;2.55;100.00;100584.97;6271054;22;20023;-74
2021/11/03 00:26:37;;;;;;;7.72;7.13;;;;;;;2.50;100.00;100579.00;6291828;22;20337;-75
2021/11/03 00:29:03;;;;;;;5.32;4.53;;;;;;;2.49;100.00;100574.72;6302187;22;20019;-75
2021/11/03 00:31:29;;;;;;;4.13;3.78;;;;;;;2.54;100.00;100567.81;6274799;22;20015;-76
2021/11/03 00:33:55;;;;;;;17.52;5.18;;;;;;;2.54;100.00;100568.66;6302176;22;20065;-75
2021/11/03 00:36:23;;;;;;;14.02;8.20;;;;;;;2.58;100.00;100578.06;6274724;22;20502;-75
2021/11/03 00:38:48;;;;;;;17.88;6.65;;;;;;;2.60;100.00;100573.75;6249298;22;20022;-76
2021/11/03 00:41:15;;;;;;;3.75;3.55;;;;;;;2.65;100.00;100586.56;6274685;22;20019;-75
2021/11/03 00:43:41;;;;;;;16.27;8.45;;;;;;;2.65;100.00;100572.84;6274824;22;20021;-75
2021/11/03 00:46:07;;;;;;;35.78;8.48;;;;;;;2.65;100.00;100580.59;6274831;22;20020;-75
2021/11/03 00:48:33;;;;;;;8.90;7.25;;;;;;;2.67;100.00;100573.66;6274780;22;20402;-75
2021/11/03 00:51:00;;;;;;;9.43;6.35;;;;;;;2.70;100.00;100573.63;6249769;22;20019;-75
2021/11/03 00:53:26;;;;;;;22.58;7.38;;;;;;;2.69;100.00;100577.94;6249323;22;20102;-74
2021/11/03 00:55:53;;;;;;;7.93;6.68;;;;;;;2.68;100.00;100578.81;6302128;22;20019;-74
2021/11/03 00:58:19;;;;;;;5.45;4.78;;;;;;;2.71;100.00;100580.50;6274333;22;20098;-75
2021/11/03 01:00:46;;;;;;;45.97;14.40;;;;;;;2.69;100.00;100566.75;6274876;22;20022;-75
2021/11/03 01:03:13;;;;;;;4.40;4.00;;;;;;;2.72;100.00;100582.19;6274458;22;20026;-74
2021/11/03 01:05:42;;;;;;;4.03;3.78;;;;;;;2.71;100.00;100568.47;6274908;22;20023;-75
2021/11/03 01:08:09;;;;;;;5.32;4.82;;;;;;;2.70;100.00;100569.34;6223900;22;20019;-75
2021/11/03 01:10:36;;;;;;;7.68;6.97;;;;;;;2.73;100.00;100574.47;6303154;22;20015;-74
2021/11/03 01:13:03;;;;;;;15.85;6.70;;;;;;;2.75;100.00;100582.19;6304071;22;20410;-75
2021/11/03 01:15:29;;;;;;;5.93;5.43;;;;;;;2.74;100.00;100563.28;6251196;22;20051;-75
2021/11/03 01:17:55;;;;;;;4.18;3.97;;;;;;;2.77;100.00;100572.69;6276744;22;20027;-75
2021/11/03 01:20:23;;;;;;;6.07;5.20;;;;;;;2.76;100.00;100553.78;6251445;22;20019;-74
2021/11/03 01:22:50;;;;;;;11.75;4.60;;;;;;;2.80;100.00;100568.38;6252346;22;20015;-73
2021/11/03 01:25:16;;;;;;;5.50;4.30;;;;;;;2.83;100.00;100564.88;6304158;22;20034;-75
2021/11/03 01:27:42;;;;;;;41.47;7.97;;;;;;;2.85;100.00;100565.72;6307518;22;20023;-72
2021/11/03 01:30:14;;;;;;;7.10;6.45;;;;;;;2.83;100.00;100555.44;6316709;22;20034;-74
2021/11/03 01:32:40;;;;;;;31.80;9.68;;;;;;;2.88;100.00;100565.72;6266341;22;20105;-76
2021/11/03 01:35:07;;;;;;;10.45;6.82;;;;;;;2.88;100.00;100574.25;6310433;22;20015;-75
2021/11/03 01:37:33;;;;;;;23.48;9.15;;;;;;;2.88;100.00;100576.03;6251908;22;20041;-76
2021/11/03 01:39:59;;;;;;;36.08;9.35;;;;;;;2.90;100.00;100561.38;6304472;22;20019;-74
2021/11/03 01:42:25;;;;;;;11.70;5.28;;;;;;;2.89;100.00;100554.50;6251500;22;20015;-75
2021/11/03 01:44:51;;;;;;;63.88;17.10;;;;;;;2.94;100.00;100555.31;6303885;22;20212;-75
2021/11/03 01:47:42;;;;;;;41.75;10.60;;;;;;;2.95;100.00;100542.38;6251164;22;20355;-77
2021/11/03 01:50:35;;;;;;;15.65;7.45;;;;;;;2.95;100.00;100547.53;6227360;22;20019;-75
2021/11/03 01:53:09;;;;;;;9.73;6.30;;;;;;;3.00;100.00;100548.34;6253485;22;20019;-74
2021/11/03 01:55:38;;;;;;;5.90;5.53;;;;;;;3.01;100.00;100544.88;6276791;22;20023;-75
2021/11/03 01:58:12;;;;;;;40.90;12.55;;;;;;;3.04;100.00;100534.50;6251528;22;20098;-75
2021/11/03 02:00:41;;;;;;;10.55;6.43;;;;;;;3.05;100.00;100541.38;6251204;22;20035;-75
2021/11/03 02:03:11;;;;;;;7.10;6.35;;;;;;;3.05;100.00;100538.81;6303435;22;20046;-76
2021/11/03 02:05:46;;;;;;;9.02;5.47;;;;;;;3.08;100.00;100543.06;6251811;22;20375;-74
2021/11/03 02:08:13;;;;;;;15.32;8.02;;;;;;;3.10;100.00;100534.47;6276124;22;20495;-77
2021/11/03 02:10:39;;;;;;;5.00;4.55;;;;;;;3.12;100.00;100537.00;6251221;22;20068;-74
2021/11/03 02:13:09;;;;;;;7.25;6.65;;;;;;;3.14;100.00;100530.94;6276577;22;20363;-76
2021/11/03 02:15:35;;;;;;;33.22;11.10;;;;;;;3.19;100.00;100530.03;6251292;22;20365;-76
2021/11/03 02:18:01;;;;;;;13.70;3.30;;;;;;;3.17;100.00;100539.53;6276498;22;20015;-76
2021/11/03 02:20:27;;;;;;;1.60;1.50;;;;;;;3.19;100.00;100528.31;6251263;22;20099;-75
2021/11/03 02:23:13;;;;;;;9.45;6.50;;;;;;;3.23;100.00;100526.53;6251479;22;20046;-74
2021/11/03 02:25:58;;;;;;;43.65;10.93;;;;;;;3.20;100.00;100524.88;6250695;22;20107;-74
2021/11/03 02:28:27;;;;;;;42.90;12.18;;;;;;;3.24;100.00;100511.03;6275706;22;20409;-75
2021/11/03 02:30:54;;;;;;;1.73;1.67;;;;;;;3.27;100.00;100521.31;6276075;22;20016;-75
2021/11/03 02:33:22;;;;;;;44.25;15.65;;;;;;;3.25;100.00;100524.78;6275783;22;20025;-75
2021/11/03 02:36:04;;;;;;;3.70;3.28;;;;;;;3.29;100.00;100523.88;6251250;22;20019;-73
2021/11/03 02:38:35;;;;;;;13.55;5.93;;;;;;;3.31;100.00;100532.44;6251648;22;20178;-78
2021/11/03 02:41:06;;;;;;;65.03;14.27;;;;;;;3.31;100.00;100522.09;6276198;22;20022;-76
2021/11/03 02:44:12;;;;;;;5.15;4.75;;;;;;;3.30;100.00;100518.69;6275621;22;20023;-77
2021/11/03 02:46:38;;;;;;;37.28;6.05;;;;;;;3.32;100.00;100511.78;6229820;22;20406;-77
2021/11/03 02:49:05;;;;;;;23.45;10.05;;;;;;;3.35;100.00;100510.88;6275860;22;20011;-76
2021/11/03 02:51:39;;;;;;;7.90;7.13;;;;;;;3.32;100.00;100511.78;6275954;22;20015;-77
2021/11/03 02:54:08;;;;;;;6.13;5.30;;;;;;;3.36;100.00;100510.00;6250692;22;20502;-76
2021/11/03 02:56:39;;;;;;;10.52;7.22;;;;;;;3.32;100.00;100500.59;6276037;22;20478;-76
2021/11/03 02:59:07;;;;;;;45.75;12.75;;;;;;;3.35;100.00;100513.44;6250391;22;20026;-76
2021/11/03 03:01:39;;;;;;;9.25;6.20;;;;;;;3.38;100.00;100508.25;6302969;22;20064;-78
2021/11/03 03:04:09;;;;;;;27.95;9.10;;;;;;;3.41;100.00;100503.03;6250328;22;20019;-77
2021/11/03 03:06:35;;;;;;;35.53;11.98;;;;;;;3.39;100.00;100500.50;6303071;22;20023;-77
2021/11/03 03:09:02;;;;;;;20.30;8.68;;;;;;;3.42;100.00;100499.59;6250093;22;20114;-76
2021/11/03 03:11:30;;;;;;;17.13;4.55;;;;;;;3.42;100.00;100510.75;6251662;22;20015;-75
2021/11/03 03:13:56;;;;;;;46.65;14.70;;;;;;;3.43;100.00;100502.16;6250071;22;20118;-76
2021/11/03 03:16:24;;;;;;;6.72;5.10;;;;;;;3.44;100.00;100509.00;6275333;22;20094;-76
2021/11/03 03:18:51;;;;;;;31.55;14.75;;;;;;;3.43;100.00;100491.84;6275761;22;20035;-77
2021/11/03 03:21:18;;;;;;;7.65;5.45;;;;;;;3.47;100.00;100498.63;6275435;22;20047;-77
2021/11/03 03:23:47;;;;;;;8.60;5.40;;;;;;;3.49;100.00;100506.34;6275403;22;20019;-77
2021/11/03 03:26:15;;;;;;;32.38;11.43;;;;;;;3.50;100.00;100511.47;6275053;22;20106;-76
2021/11/03 03:28:43;;;;;;;28.05;9.55;;;;;;;3.51;100.00;100496.84;6302871;22;20019;-75
2021/11/03 03:31:10;;;;;;;10.80;8.85;;;;;;;3.51;100.00;100499.44;6249869;22;20015;-76
2021/11/03 03:33:37;;;;;;;20.65;8.43;;;;;;;3.56;100.00;100482.16;6224819;22;20023;-75
2021/11/03 03:36:04;;;;;;;22.67;10.43;;;;;;;3.55;100.00;100483.88;6275514;22;20019;-74
2021/11/03 03:38:31;;;;;;;16.27;8.48;;;;;;;3.56;100.00;100484.75;6302431;22;20022;-76
2021/11/03 03:40:57;;;;;;;37.38;12.23;;;;;;;3.61;100.00;100486.38;6249623;22;20050;-75
2021/11/03 03:43:24;;;;;;;18.35;8.85;;;;;;;3.62;100.00;100492.38;6275115;22;20023;-76
2021/11/03 03:45:50;;;;;;;10.70;5.18;;;;;;;3.63;100.00;100489.75;6275469;22;20026;-76
2021/11/03 03:48:16;;;;;;;12.55;6.72;;;;;;;3.65;100.00;100482.84;6274974;22;20094;-76
2021/11/03 03:50:43;;;;;;;9.60;8.70;;;;;;;3.66;100.00;100478.56;6249819;22;20023;-75
2021/11/03 03:53:11;;;;;;;42.45;7.97;;;;;;;3.64;100.00;100460.50;6250085;22;20019;-76
2021/11/03 03:55:38;;;;;;;5.75;5.30;;;;;;;3.71;100.00;100476.72;6224727;22;20046;-76
2021/11/03 03:58:06;;;;;;;4.57;4.28;;;;;;;3.71;100.00;100471.56;6224725;22;20087;-76
2021/11/03 04:00:33;;;;;;;35.50;10.15;;;;;;;3.73;100.00;100471.56;6275156;22;20019;-76
2021/11/03 04:02:59;;;;;;;17.85;7.78;;;;;;;3.70;100.00;100445.78;6275217;22;20060;-74
2021/11/03 04:05:26;;;;;;;1.83;1.73;;;;;;;3.74;100.00;100450.84;6301803;22;20485;-74
2021/11/03 04:07:55;;;;;;;27.45;10.05;;;;;;;3.79;100.00;100476.59;6275148;22;20519;-77
2021/11/03 04:10:21;;;;;;;8.88;6.40;;;;;;;3.75;100.00;100473.22;6274851;22;20087;-77
2021/11/03 04:12:48;;;;;;;33.85;12.35;;;;;;;3.81;100.00;100451.59;6275193;22;20049;-76
2021/11/03 04:15:17;;;;;;;17.77;9.48;;;;;;;3.81;100.00;100478.28;6249813;22;20477;-77
2021/11/03 04:17:43;;;;;;;10.32;7.40;;;;;;;3.84;100.00;100483.38;6302569;22;20054;-77
2021/11/03 04:20:11;;;;;;;7.35;4.32;;;;;;;3.85;100.00;100461.00;6249067;22;20109;-77
2021/11/03 04:22:39;;;;;;;13.40;8.02;;;;;;;3.84;100.00;100487.69;6250493;22;20031;-77
2021/11/03 04:25:06;;;;;;;24.33;10.25;;;;;;;3.89;100.00;100491.94;6274973;22;20471;-78
2021/11/03 04:27:32;;;;;;;24.90;6.97;;;;;;;3.87;100.00;100485.91;6274997;22;20030;-77
2021/11/03 04:29:58;;;;;;;28.35;10.27;;;;;;;3.89;100.00;100470.41;6274977;22;20022;-76
2021/11/03 04:32:24;;;;;;;7.00;6.25;;;;;;;3.90;100.00;100472.94;6225621;22;20073;-77
2021/11/03 04:34:51;;;;;;;6.85;6.20;;;;;;;3.89;100.00;100484.19;6276308;22;20497;-78
2021/11/03 04:37:18;;;;;;;4.82;4.35;;;;;;;3.90;100.00;100480.69;6303580;22;20019;-82
2021/11/03 04:39:44;;;;;;;20.83;9.80;;;;;;;3.92;100.00;100472.94;6257318;22;20015;-82
2021/11/03 04:42:10;;;;;;;4.47;4.05;;;;;;;3.89;100.00;100479.00;6252628;22;20086;-84
2021/11/03 04:44:38;;;;;;;6.80;6.20;;;;;;;3.95;100.00;100494.41;6278028;22;20352;-81
2021/11/03 04:47:05;;;;;;;12.23;5.60;;;;;;;3.94;100.00;100494.41;6303713;22;20584;-83
2021/11/03 04:49:35;;;;;;;19.92;9.10;;;;;;;3.96;100.00;100487.50;6251782;22;20050;-84
2021/11/03 04:52:02;;;;;;;22.55;9.98;;;;;;;3.97;100.00;100492.63;6280505;22;20014;-86
2021/11/03 04:54:29;;;;;;;11.75;8.32;;;;;;;3.95;100.00;100496.13;6276857;22;20106;-84
2021/11/03 04:56:55;;;;;;;16.70;9.98;;;;;;;4.01;100.00;100502.03;6279147;22;20022;-81
2021/11/03 04:59:23;;;;;;;9.40;7.40;;;;;;;4.01;100.00;100471.03;6250143;22;20106;-80
2021/11/03 05:01:51;;;;;;;13.25;9.07;;;;;;;4.03;100.00;100495.09;6276789;22;20022;-79
2021/11/03 05:04:18;;;;;;;3.53;3.22;;;;;;;4.03;100.00;100499.41;6225744;22;20019;-81
2021/11/03 05:06:48;;;;;;;7.43;5.25;;;;;;;4.04;100.00;100470.97;6250670;22;20022;-79
2021/11/03 05:09:16;;;;;;;;;;;;;;;4.03;100.00;100495.09;6276944;22;20015;-80
2021/11/03 05:11:42;;;;;;;17.35;10.10;;;;;;;4.04;100.00;100488.19;6226940;22;20286;-79
2021/11/03 05:14:10;;;;;;;13.70;9.25;;;;;;;4.07;100.00;100496.75;6250965;22;20102;-79
2021/11/03 05:16:41;;;;;;;12.52;6.70;;;;;;;4.05;100.00;100483.03;6276096;22;20364;-78
2021/11/03 05:19:07;;;;;;;5.82;5.30;;;;;;;4.07;100.00;100465.75;6250136;22;20093;-73
2021/11/03 05:21:39;;;;;;;5.57;5.13;;;;;;;4.04;100.00;100489.06;6250507;22;20042;-75
2021/11/03 05:24:07;;;;;;;13.73;7.00;;;;;;;4.05;100.00;100492.50;6250771;22;20019;-75
2021/11/03 05:26:33;;;;;;;17.48;9.25;;;;;;;4.08;100.00;100482.97;6250126;22;20133;-74
2021/11/03 05:29:01;;;;;;;1.65;1.63;;;;;;;4.12;100.00;100494.91;6305483;22;20015;-74
2021/11/03 05:31:27;;;;;;;4.00;3.55;;;;;;;4.12;100.00;100507.84;6286237;22;20035;-76
2021/11/03 05:33:54;;;;;;;14.15;7.03;;;;;;;4.13;100.00;100506.09;6313651;22;20102;-77
2021/11/03 05:36:22;;;;;;;8.85;6.13;;;;;;;4.16;100.00;100509.50;6305280;22;20054;-79
2021/11/03 05:38:49;;;;;;;15.80;9.13;;;;;;;4.18;100.00;100525.84;6277142;22;20390;-76
2021/11/03 05:41:15;;;;;;;5.47;5.07;;;;;;;4.19;100.00;100522.34;6303259;22;20037;-78
2021/11/03 05:43:41;;;;;;;11.02;7.57;;;;;;;4.18;100.00;100522.41;6284694;22;20456;-78
2021/11/03 05:46:07;;;;;;;6.45;4.40;;;;;;;4.20;100.00;100508.56;6307252;22;20098;-77
2021/11/03 05:48:35;;;;;;;21.40;13.07;;;;;;;4.21;100.00;100522.34;6275944;22;20022;-77
2021/11/03 05:51:02;;;;;;;4.35;3.95;;;;;;;4.18;100.00;100502.59;6276398;22;20011;-79
2021/11/03 05:53:28;;;;;;;9.40;6.10;;;;;;;4.21;100.00;100517.16;6303273;22;20030;-77
2021/11/03 05:55:54;;;;;;;6.75;5.72;;;;;;;4.25;100.00;100505.06;6225604;22;20050;-73
2021/11/03 05:58:21;;;;;;;3.58;2.47;;;;;;;4.29;100.00;100511.88;6303795;22;20022;-72
2021/11/03 06:00:47;;;;;;;7.28;4.80;;;;;;;4.28;100.00;100521.34;6277807;22;20022;-72
2021/11/03 06:03:14;;;;;;;16.80;9.80;;;;;;;4.25;100.00;100485.22;6305109;22;20460;-73
2021/11/03 06:05:41;;;;;;;12.43;9.43;;;;;;;4.27;100.00;100501.56;6279777;22;20030;-73
2021/11/03 06:08:07;;;;;;;12.52;6.15;;;;;;;4.31;100.00;100535.94;6277677;22;20029;-74
2021/11/03 06:10:35;;;;;;;16.70;10.63;;;;;;;4.32;100.00;100520.38;6304496;22;20019;-74
2021/11/03 06:13:03;;;;;;;6.90;6.32;;;;;;;4.29;100.00;100517.03;6300406;22;20019;-76
2021/11/03 06:15:30;;;;;;;8.82;6.53;;;;;;;4.30;100.00;100503.22;6276180;22;20019;-75
2021/11/03 06:17:56;;;;;;;7.50;6.72;;;;;;;4.35;100.00;100488.50;6277128;22;20023;-76
2021/11/03 06:20:22;;;;;;;15.43;9.80;;;;;;;4.40;100.00;100512.50;6276326;22;20396;-76
2021/11/03 06:22:49;;;;;;;7.10;5.93;;;;;;;4.42;100.00;100508.13;6251551;22;20069;-76
2021/11/03 06:25:16;;;;;;;10.95;7.35;;;;;;;4.42;100.00;100506.41;6302918;22;20323;-75
2021/11/03 06:27:43;;;;;;;4.13;3.72;;;;;;;4.40;100.00;100492.69;6272666;22;20019;-75
2021/11/03 06:30:10;;;;;;;3.33;3.10;;;;;;;4.46;100.00;100505.47;6245771;22;20026;-76
2021/11/03 06:32:36;;;;;;;12.65;6.28;;;;;;;4.44;100.00;100501.22;6245331;22;20016;-76
2021/11/03 06:35:03;;;;;;;6.22;5.72;;;;;;;4.48;100.00;100498.53;6271030;22;20046;-75
2021/11/03 06:37:29;;;;;;;3.35;3.17;;;;;;;4.48;100.00;100506.28;6220395;22;20023;-75
2021/11/03 06:39:55;;;;;;;14.65;3.58;;;;;;;4.47;100.00;100506.34;6272053;22;20073;-76
2021/11/03 06:42:23;;;;;;;9.23;6.30;;;;;;;4.50;100.00;100493.34;6245269;22;20015;-74
2021/11/03 06:44:50;;;;;;;10.15;8.52;;;;;;;4.51;100.00;100528.66;6272632;22;20065;-76
2021/11/03 06:47:19;;;;;;;10.88;8.00;;;;;;;4.54;100.00;100500.16;6220091;22;20106;-74
2021/11/03 06:49:46;;;;;;;5.22;4.72;;;;;;;4.57;100.00;100508.72;6271604;22;20019;-76
2021/11/03 06:52:13;;;;;;;8.05;7.32;;;;;;;4.60;100.00;100500.91;6219394;22;20149;-75
2021/11/03 06:54:39;;;;;;;26.17;12.80;;;;;;;4.63;100.00;100481.88;6244315;22;20073;-76
2021/11/03 06:57:06;;;;;;;13.13;7.82;;;;;;;4.66;100.00;100489.56;6220556;22;20434;-75
2021/11/03 06:59:32;;;;;;;8.68;6.10;;;;;;;4.67;100.00;100474.03;6244406;22;20026;-73
2021/11/03 07:01:59;;;;;;;14.57;10.40;;;;;;;4.69;100.00;100476.56;6274481;22;20012;-78
2021/11/03 07:04:25;;;;;;;7.47;6.82;;;;;;;4.70;100.00;100479.16;6246548;22;20158;-75
2021/11/03 07:06:52;;;;;;;11.98;8.02;;;;;;;4.72;100.00;100476.50;6273313;22;20016;-75
2021/11/03 07:09:18;;;;;;;12.27;6.53;;;;;;;4.74;100.00;100487.69;6245299;22;20058;-76
2021/11/03 07:11:44;;;;;;;12.20;8.13;;;;;;;4.76;100.00;100490.22;6273299;22;20454;-77
2021/11/03 07:14:11;;;;;;;10.95;7.20;;;;;;;4.74;100.00;100454.91;6246327;22;20030;-76
2021/11/03 07:16:37;;;;;;;7.55;6.63;;;;;;;4.80;100.00;100505.66;6273056;22;20073;-75
2021/11/03 07:19:03;;;;;;;12.95;10.82;;;;;;;4.82;100.00;100493.53;6245065;22;20019;-75
2021/11/03 07:21:29;;;;;;;10.43;8.15;;;;;;;4.83;100.00;100482.31;6272976;22;20126;-74
2021/11/03 07:23:55;;;;;;;8.02;5.97;;;;;;;4.91;100.00;100477.81;6273091;22;20026;-74
2021/11/03 07:26:21;;;;;;;20.83;10.15;;;;;;;4.91;100.00;100470.03;6285938;22;20106;-75
2021/11/03 07:28:47;;;;;;;2.10;1.65;;;;;;;4.95;99.74;100479.44;6304258;22;20037;-75
2021/11/03 07:31:13;;;;;;;7.90;6.25;;;;;;;4.95;99.41;100481.19;6303604;22;20366;-77
2021/11/03 07:33:40;;;;;;;14.90;10.45;;;;;;;5.00;98.94;100481.94;6303687;22;20026;-74
2021/11/03 07:36:08;;;;;;;12.00;7.78;;;;;;;5.05;98.84;100475.78;6304422;22;20015;-75
2021/11/03 07:38:36;;;;;;;12.95;7.55;;;;;;;5.05;98.94;100480.94;6252081;22;20094;-75
2021/11/03 07:41:02;;;;;;;8.77;8.05;;;;;;;5.06;98.58;100482.66;6303372;22;20011;-76
2021/11/03 07:43:29;;;;;;;27.77;13.07;;;;;;;5.05;98.21;100468.00;6303017;22;20358;-76
2021/11/03 07:45:56;;;;;;;1.75;1.75;;;;;;;5.13;97.94;100483.38;6302847;22;20022;-75
2021/11/03 07:48:24;;;;;;;18.75;9.60;;;;;;;5.18;96.94;100459.09;6275847;22;20057;-76
2021/11/03 07:50:57;;;;;;;18.02;10.60;;;;;;;5.25;96.47;100473.59;6276689;22;20022;-76
2021/11/03 07:53:23;;;;;;;9.95;9.05;;;;;;;5.30;96.90;100459.69;6273928;22;20015;-76
2021/11/03 07:55:52;;;;;;;5.95;5.40;;;;;;;5.30;96.41;100457.09;6275192;22;20020;-76
2021/11/03 07:58:21;;;;;;;30.27;10.40;;;;;;;5.34;96.33;100446.63;6249273;22;20015;-74
2021/11/03 08:00:49;;;;;;;;;;;;;;;5.39;95.44;100470.69;6275197;22;20021;-74
2021/11/03 08:03:16;;;;;;;7.90;7.28;;;;;;;5.41;95.41;100422.28;6301516;22;20000;-73
2021/11/03 08:05:42;;;;;;;16.00;10.68;;;;;;;5.41;95.89;100432.66;6248901;22;20533;-73
2021/11/03 08:08:14;;;;;;;10.05;8.30;;;;;;;5.41;95.38;100455.94;6301130;22;20015;-73
2021/11/03 08:15:10;;;;;;;9.18;6.80;;;;;;;5.44;94.54;100427.41;6300384;22;20160;-75
2021/11/03 08:17:37;;;;;;;5.68;5.28;;;;;;;5.46;94.10;100441.19;6275047;22;20057;-74
2021/11/03 08:20:05;;;;;;;6.85;6.32;;;;;;;5.49;94.53;100440.25;6274818;22;20454;-74
2021/11/03 08:22:34;;;;;;;8.80;5.85;;;;;;;5.50;93.35;100454.88;6250883;22;20015;-74
2021/11/03 08:25:00;;;;;;;10.48;8.23;;;;;;;5.55;93.24;100451.28;6275424;22;20026;-75
2021/11/03 08:27:27;;;;;;;10.13;7.28;;;;;;;5.53;93.11;100460.81;6301675;22;20019;-74
2021/11/03 08:29:53;;;;;;;16.08;7.55;;;;;;;5.55;93.48;100478.94;6302584;22;20019;-74
2021/11/03 08:32:27;;;;;;;2.00;1.90;;;;;;;5.57;92.94;100464.19;6302604;22;20015;-74
2021/11/03 08:34:54;;;;;;;19.08;11.50;;;;;;;5.56;92.92;100452.16;6251320;22;20030;-74
2021/11/03 08:37:24;;;;;;;14.90;9.70;;;;;;;5.61;92.59;100450.28;6275252;22;20015;-74
2021/11/03 08:39:51;;;;;;;12.05;8.18;;;;;;;5.61;92.73;100464.09;6275566;22;20443;-74
2021/11/03 08:42:17;;;;;;;6.82;6.22;;;;;;;5.64;92.26;100424.31;6249796;22;20015;-74
2021/11/03 08:44:44;;;;;;;10.45;6.35;;;;;;;5.65;92.45;100441.56;6302922;22;20022;-75
2021/11/03 08:47:10;;;;;;;9.77;8.75;;;;;;;5.65;92.42;100451.91;6301714;22;20447;-75
2021/11/03 08:49:36;;;;;;;4.38;3.05;;;;;;;5.68;92.45;100423.34;6299586;22;20557;-74
2021/11/03 08:52:04;;;;;;;13.15;7.18;;;;;;;5.69;92.04;100406.91;6246974;22;20078;-73
2021/11/03 08:54:41;;;;;;;8.05;7.18;;;;;;;5.69;92.20;100412.09;6273507;22;20102;-75
2021/11/03 08:57:08;;;;;;;9.10;7.60;;;;;;;5.72;91.11;100412.03;6200413;22;20567;-74
2021/11/03 08:59:34;;;;;;;7.30;6.60;;;;;;;5.82;91.58;100428.16;6301774;22;20022;-74
2021/11/03 09:02:03;;;;;;;10.32;8.70;;;;;;;5.78;91.27;100410.13;6301877;22;20783;-72
2021/11/03 09:04:31;;;;;;;5.63;5.15;;;;;;;5.81;91.05;100431.66;6273811;22;20054;-74
2021/11/03 09:06:58;;;;;;;8.15;7.40;;;;;;;5.77;91.44;100420.50;6274291;22;20106;-74
2021/11/03 09:09:25;;;;;;;6.93;5.30;;;;;;;5.80;90.79;100394.53;6299785;22;20065;-73
2021/11/03 09:11:52;;;;;;;8.38;7.57;;;;;;;5.86;90.76;100415.13;6302457;22;20820;-74
2021/11/03 09:14:21;;;;;;;4.13;3.78;;;;;;;5.84;91.19;100397.88;6300565;22;20019;-73
2021/11/03 09:16:48;;;;;;;10.10;7.95;;;;;;;5.87;90.66;100416.81;6273123;22;20490;-74
2021/11/03 09:19:15;;;;;;;7.78;7.03;;;;;;;5.88;90.80;100422.84;6299148;22;20381;-73
2021/11/03 09:21:41;;;;;;;33.80;14.32;;;;;;;5.85;90.73;100382.31;6219958;22;20548;-73
2021/11/03 09:24:07;;;;;;;10.52;8.27;;;;;;;5.85;91.01;100403.03;6247356;22;20015;-74
2021/11/03 09:26:34;;;;;;;6.70;6.20;;;;;;;5.92;90.56;100394.25;6272928;22;20025;-74
2021/11/03 09:29:01;;;;;;;8.27;7.30;;;;;;;5.92;90.37;100378.69;6275291;22;20339;-74
2021/11/03 09:31:28;;;;;;;7.07;5.25;;;;;;;5.93;90.66;100385.56;6278624;22;20023;-75
2021/11/03 09:33:54;;;;;;;14.27;11.90;;;;;;;5.95;90.21;100401.94;6306680;22;20519;-72
2021/11/03 09:36:21;;;;;;;7.05;4.63;;;;;;;5.97;90.52;100386.31;6304546;22;20098;-73
2021/11/03 09:38:48;;;;;;;4.07;3.67;;;;;;;5.99;90.58;100384.56;6303212;22;20015;-74
2021/11/03 09:41:23;;;;;;;14.90;11.00;;;;;;;6.01;90.46;100383.63;6302187;22;20015;-74
2021/11/03 09:43:51;;;;;;;13.70;10.02;;;;;;;6.05;90.10;100392.97;6275967;22;20023;-74
2021/11/03 09:46:26;;;;;;;4.40;3.28;;;;;;;6.05;89.96;100386.97;6303817;22;20019;-74
2021/11/03 09:49:14;;;;;;;9.15;6.07;;;;;;;6.07;89.53;100357.53;6277442;22;20023;-74
2021/11/03 09:51:43;;;;;;;7.72;6.82;;;;;;;6.12;90.04;100386.75;6278175;22;20026;-73
2021/11/03 09:54:16;;;;;;;11.95;8.13;;;;;;;6.12;89.20;100391.06;6305134;22;20482;-74
2021/11/03 09:56:45;;;;;;;5.93;5.38;;;;;;;6.15;88.86;100346.94;6278000;22;20455;-73
2021/11/03 09:59:20;;;;;;;17.60;10.80;;;;;;;6.17;89.02;100376.25;6258236;22;20015;-76
2021/11/03 10:01:55;;;;;;;9.52;8.77;;;;;;;6.18;88.87;100371.00;6262352;22;20018;-76
2021/11/03 10:04:27;;;;;;;8.60;7.90;;;;;;;6.22;88.91;100393.38;6291214;22;20038;-75
2021/11/03 10:07:04;;;;;;;11.20;8.25;;;;;;;6.20;88.96;100365.78;6261183;22;20060;-74
2021/11/03 10:09:31;;;;;;;11.50;8.80;;;;;;;6.23;88.88;100379.53;6252580;22;20111;-74
2021/11/03 10:11:57;;;;;;;9.32;8.05;;;;;;;6.22;89.36;100388.19;6277855;22;20042;-74
2021/11/03 10:14:23;;;;;;;5.05;4.75;;;;;;;6.22;89.61;100351.03;6252003;22;20017;-74
2021/11/03 10:16:52;;;;;;;3.47;3.28;;;;;;;6.12;90.26;100355.63;6277762;22;20047;-75
2021/11/03 10:19:23;;;;;;;12.02;9.50;;;;;;;6.07;91.65;100365.31;6277752;22;20015;-74
2021/11/03 10:21:51;;;;;;;3.13;2.80;;;;;;;5.99;92.69;100374.19;6277147;22;20020;-74
2021/11/03 10:24:20;;;;;;;5.63;4.13;;;;;;;6.01;93.03;100381.03;6228335;22;20460;-74
2021/11/03 10:26:58;;;;;;;5.50;4.45;;;;;;;5.99;93.23;100377.59;6276883;22;20100;-75
2021/11/03 10:29:29;;;;;;;5.45;5.05;;;;;;;5.96;93.55;100389.78;6304332;22;20030;-75
2021/11/03 10:31:56;;;;;;;17.58;9.05;;;;;;;5.92;94.85;100357.13;6277586;22;20362;-75
2021/11/03 10:34:24;;;;;;;3.60;3.30;;;;;;;5.87;95.30;100365.00;6304492;22;20038;-75
2021/11/03 10:37:05;;;;;;;7.25;4.82;;;;;;;5.86;95.41;100358.09;6277055;22;20015;-75
2021/11/03 10:39:54;;;;;;;15.15;10.82;;;;;;;5.85;96.29;100351.22;6304248;22;20029;-75
2021/11/03 10:42:29;;;;;;;6.85;6.20;;;;;;;5.85;96.58;100346.03;6276918;22;20038;-75
2021/11/03 10:45:16;;;;;;;23.60;10.00;;;;;;;5.86;96.05;100339.97;6276570;22;20023;-73
2021/11/03 10:47:51;;;;;;;19.52;11.30;;;;;;;5.90;96.11;100344.19;6304685;22;20019;-75
2021/11/03 10:50:41;;;;;;;9.77;5.90;;;;;;;5.92;95.94;100339.84;6277478;22;20015;-75
2021/11/03 10:53:16;;;;;;;15.27;8.73;;;;;;;5.91;96.26;100348.50;6276924;22;20133;-75
2021/11/03 10:55:46;;;;;;;11.05;9.25;;;;;;;5.91;96.60;100353.66;6304274;22;20027;-75
2021/11/03 10:58:12;;;;;;;3.67;3.45;;;;;;;5.95;96.65;100347.50;6304276;22;20016;-74
2021/11/03 11:01:02;;;;;;;3.97;3.33;;;;;;;5.98;95.82;100336.22;6276613;22;20069;-75
2021/11/03 11:03:36;;;;;;;6.15;5.63;;;;;;;5.99;96.22;100348.28;6276572;22;20015;-74
2021/11/03 11:06:34;;;;;;;17.02;11.13;;;;;;;6.08;95.02;100325.53;6304148;22;20157;-75
2021/11/03 11:09:10;;;;;;;11.02;6.68;;;;;;;6.11;95.23;100296.94;6303880;22;20026;-74
2021/11/03 11:11:41;;;;;;;10.43;8.35;;;;;;;6.12;94.33;100308.13;6303755;22;20015;-74
2021/11/03 11:14:19;;;;;;;8.95;8.00;;;;;;;6.10;95.00;100321.16;6277812;22;20047;-75
2021/11/03 11:16:57;;;;;;;13.68;11.45;;;;;;;6.13;94.78;100340.94;6252972;22;20455;-75
2021/11/03 11:19:41;;;;;;;10.23;8.23;;;;;;;6.15;94.86;100319.25;6303928;22;20066;-74
2021/11/03 11:22:32;;;;;;;2.67;2.58;;;;;;;6.15;95.06;100339.19;6277058;22;20038;-74
2021/11/03 11:25:04;;;;;;;15.32;11.75;;;;;;;6.16;94.73;100315.78;6255289;22;20451;-74
2021/11/03 11:27:36;;;;;;;6.40;5.80;;;;;;;6.14;95.36;100302.03;6303839;22;20031;-73
2021/11/03 11:30:16;;;;;;;8.07;7.25;;;;;;;6.15;95.23;100318.44;6252279;22;20160;-74
2021/11/03 11:32:49;;;;;;;2.57;2.37;;;;;;;6.14;95.59;100303.78;6277022;22;20526;-75
2021/11/03 11:35:35;;;;;;;2.95;2.75;;;;;;;6.13;95.75;100326.25;6277264;22;20019;-74
2021/11/03 11:38:07;;;;;;;11.95;4.68;;;;;;;6.14;96.30;100309.81;6252243;22;20420;-74